John James Audubon — WDE8037 — position and weather

sailwx.info

Track history (hours):
 
Tides and Currents Weather Stations Pressure Air Temp Water Temp Dewpoint Dewpoint Depression Visibility Wind Speed Wind Dir Waves Ship Positions

John James Audubon

Owner: Statue Cruises, Jersey City, NJ. More information available from US FCC via Universal Licensing System and Coast Guard Vessel Documentation Center.

Last reported at 2015-Aug-29 23:33 UTC. Time now 2015-Aug-30 03:36 UTC.
Position N 40°44' W 074°01'.

Length 37 m.

Type: Ship. MMSI: 367400770.

Date/timePositionNaut miles runAvg speedWind from/ knotsBaromVisibWave heightAir tempDewpointWater temp
2015-Aug-29 23:33N 40°44' W 074°01'2 1.6
2015-Aug-29 22:33N 40°42' W 074°00'1 1.5
2015-Aug-29 21:34N 40°42' W 074°02'1 1.5
2015-Aug-29 20:34N 40°42' W 074°00'0 0.1
2015-Aug-29 19:33N 40°42' W 074°00'1 1.3
2015-Aug-29 18:34N 40°41' W 074°02'1 1.4
2015-Aug-29 17:34N 40°42' W 074°00'0 0.0
2015-Aug-29 16:34N 40°42' W 074°00'2 1.7
2015-Aug-29 15:34N 40°41' W 074°02'2 1.7
2015-Aug-29 14:34N 40°42' W 074°00'0 0.0
2015-Aug-29 13:34N 40°42' W 074°00'2 1.6
2015-Aug-29 12:34N 40°44' W 074°01'0 0.0
2015-Aug-29 11:33N 40°44' W 074°01'0 0.0
2015-Aug-29 10:33N 40°44' W 074°01'0 0.0
2015-Aug-29 09:33N 40°44' W 074°01'0 0.0
2015-Aug-29 08:33N 40°44' W 074°01'0 0.0
2015-Aug-29 07:33N 40°44' W 074°01'0 0.0
2015-Aug-29 06:33N 40°44' W 074°01'0 0.0
2015-Aug-29 05:34N 40°44' W 074°01'0 0.0
2015-Aug-29 04:33N 40°44' W 074°01'0 0.0
2015-Aug-29 03:33N 40°44' W 074°01'0 0.0
2015-Aug-29 02:33N 40°44' W 074°01'0 0.0
2015-Aug-29 01:33N 40°44' W 074°01'0 0.0
2015-Aug-29 00:33N 40°44' W 074°01'0 0.0
2015-Aug-28 23:33N 40°44' W 074°01'0 0.0
2015-Aug-28 22:33N 40°44' W 074°01'2 2.3
2015-Aug-28 21:33N 40°42' W 074°02'1 1.3
2015-Aug-28 20:33N 40°42' W 074°00'0 0.0
2015-Aug-28 19:33N 40°42' W 074°00'2 1.9
2015-Aug-28 18:33N 40°41' W 074°02'2 1.9
2015-Aug-28 17:33N 40°42' W 074°00'0 0.0
2015-Aug-28 16:33N 40°42' W 074°00'2 1.9
2015-Aug-28 15:33N 40°41' W 074°02'2 1.9
2015-Aug-28 14:33N 40°42' W 074°00'0 0.0
2015-Aug-28 13:33N 40°42' W 074°00'2 1.6
2015-Aug-28 12:33N 40°44' W 074°01'0 0.0
2015-Aug-28 11:33N 40°44' W 074°01'0 0.0
2015-Aug-27 20:04N 40°44' W 074°01'2 3.2
2015-Aug-27 19:33N 40°42' W 074°00'0 0.0
2015-Aug-27 18:33N 40°42' W 074°00'2 1.6
2015-Aug-27 17:33N 40°41' W 074°02'2 1.6
2015-Aug-27 16:33N 40°42' W 074°00'0 0.0
2015-Aug-27 15:33N 40°42' W 074°00'2 1.5
2015-Aug-27 14:34N 40°41' W 074°02'2 1.5
2015-Aug-27 13:33N 40°42' W 074°00'2 0.1
2015-Aug-26 22:33N 40°44' W 074°01'2 1.6
2015-Aug-26 21:33N 40°42' W 074°00'0 0.0
2015-Aug-26 20:33N 40°42' W 074°00'0 0.0
2015-Aug-26 19:33N 40°42' W 074°00'0 0.0
2015-Aug-26 18:33N 40°42' W 074°00'2 1.8
2015-Aug-26 17:33N 40°41' W 074°02'2 1.8
2015-Aug-26 16:33N 40°42' W 074°00'0 0.0
2015-Aug-26 15:33N 40°42' W 074°00'2 1.6
2015-Aug-26 14:33N 40°41' W 074°02'1 0.9
2015-Aug-26 13:33N 40°42' W 074°01'1 0.1
2015-Aug-26 02:34N 40°42' W 074°02'7 3.2
2015-Aug-26 00:32N 40°48' W 073°59'4 4.3
2015-Aug-25 23:33N 40°44' W 074°01'0 0.0
2015-Aug-25 22:33N 40°44' W 074°01'0 0.0
2015-Aug-25 21:33N 40°44' W 074°01'0 0.0
2015-Aug-25 20:33N 40°44' W 074°01'2 1.6
2015-Aug-25 19:33N 40°42' W 074°00'0 0.0
2015-Aug-25 18:34N 40°42' W 074°00'2 1.8
2015-Aug-25 17:33N 40°41' W 074°02'2 2.1
2015-Aug-25 16:34N 40°42' W 073°60'0 0.2
2015-Aug-25 15:34N 40°42' W 074°00'1 1.5
2015-Aug-25 14:33N 40°41' W 074°02'1 1.5
2015-Aug-25 13:34N 40°42' W 074°00'2 0.1
2015-Aug-24 20:33N 40°44' W 074°01'2 1.6
2015-Aug-24 19:34N 40°42' W 074°00'0 0.0
2015-Aug-24 18:34N 40°42' W 074°00'1 1.3
2015-Aug-24 17:34N 40°42' W 074°02'1 1.3
2015-Aug-24 16:33N 40°42' W 074°00'0 0.0
2015-Aug-24 15:34N 40°42' W 074°00'1 1.3
2015-Aug-24 14:34N 40°42' W 074°02'2 2.2
2015-Aug-24 13:34N 40°44' W 074°01'0 0.0
2015-Aug-24 00:17N 40°44' W 074°01'0 0.0
2015-Aug-23 23:33N 40°44' W 074°01'0 0.0
2015-Aug-23 22:33N 40°44' W 074°01'3 2.5
2015-Aug-23 21:33N 40°41' W 074°02'2 1.5
2015-Aug-23 20:33N 40°42' W 074°00'0 0.0
2015-Aug-23 19:33N 40°42' W 074°00'2 1.7
2015-Aug-23 18:33N 40°41' W 074°02'2 1.7
2015-Aug-23 17:33N 40°42' W 074°00'0 0.0
2015-Aug-23 16:33N 40°42' W 074°00'1 1.3
2015-Aug-23 15:33N 40°42' W 074°02'1 1.3
2015-Aug-23 14:33N 40°42' W 074°00'0 0.0
2015-Aug-23 13:33N 40°42' W 074°00'2 0.1
2015-Aug-22 23:24N 40°44' W 074°01'0 0.2
2015-Aug-22 22:33N 40°44' W 074°01'2 2.4
2015-Aug-22 21:33N 40°42' W 074°01'1 1.2
2015-Aug-22 20:34N 40°42' W 074°00'0 0.0
2015-Aug-22 19:34N 40°42' W 074°00'2 1.5
2015-Aug-22 18:33N 40°42' W 074°02'2 1.6
2015-Aug-22 17:33N 40°42' W 074°00'0 0.3
2015-Aug-22 16:33N 40°42' W 074°00'1 1.0
2015-Aug-22 15:33N 40°42' W 074°02'1 1.3
2015-Aug-22 14:33N 40°42' W 074°00'0 0.0
2015-Aug-22 13:33N 40°42' W 074°00'2 1.6
2015-Aug-22 12:33N 40°44' W 074°01'0 0.0
2015-Aug-21 23:03N 40°44' W 074°01'0 0.3
2015-Aug-21 22:33N 40°44' W 074°01'2 2.4
2015-Aug-21 21:33N 40°42' W 074°02'1 1.4
2015-Aug-21 20:33N 40°42' W 074°00'0 0.0
2015-Aug-21 19:33N 40°42' W 074°00'1 1.2
2015-Aug-21 18:33N 40°42' W 074°02'1 1.2
2015-Aug-21 17:33N 40°42' W 074°00'0 0.0
2015-Aug-21 16:33N 40°42' W 074°00'1 1.4
2015-Aug-21 15:33N 40°42' W 074°02'1 1.4
2015-Aug-21 14:33N 40°42' W 074°00'0 0.0
2015-Aug-21 13:33N 40°42' W 074°00'2 0.1
2015-Aug-20 20:33N 40°44' W 074°01'2 1.6
2015-Aug-20 19:33N 40°42' W 074°00'0 0.0
2015-Aug-20 18:34N 40°42' W 074°00'1 1.1
2015-Aug-20 17:33N 40°42' W 074°01'1 1.1
2015-Aug-20 16:33N 40°42' W 074°00'0 0.0
2015-Aug-20 15:34N 40°42' W 074°00'2 1.6
2015-Aug-20 14:33N 40°41' W 074°02'2 1.7
2015-Aug-20 13:33N 40°43' W 074°01'1 0.8
2015-Aug-20 12:34N 40°44' W 074°01'0 0.0
2015-Aug-20 11:34N 40°44' W 074°01'0 0.0
2015-Aug-20 10:33N 40°44' W 074°01'0 0.0
2015-Aug-20 09:34N 40°44' W 074°01'0 0.0
2015-Aug-20 08:34N 40°44' W 074°01'0 0.0
2015-Aug-20 07:34N 40°44' W 074°01'0 0.0
2015-Aug-20 06:34N 40°44' W 074°01'0 0.0
2015-Aug-20 05:34N 40°44' W 074°01'0 0.0
2015-Aug-20 04:34N 40°44' W 074°01'0 0.0
2015-Aug-20 03:34N 40°44' W 074°01'0 0.0
2015-Aug-20 02:34N 40°44' W 074°01'0 0.0
2015-Aug-20 01:34N 40°44' W 074°01'0 0.0
2015-Aug-20 00:34N 40°44' W 074°01'  
Track history (hours):
 
Tides and Currents Weather Stations Pressure Air Temp Water Temp Dewpoint Dewpoint Depression Visibility Wind Speed Wind Dir Waves Ship Positions

John James Audubon

Owner: Statue Cruises, Jersey City, NJ. More information available from US FCC via Universal Licensing System and Coast Guard Vessel Documentation Center.

Last reported at 2015-Aug-29 23:33 UTC. Time now 2015-Aug-30 03:36 UTC.
Position N 40°44' W 074°01'.

Length 37 m.

Type: Ship. MMSI: 367400770.

Date/timePositionNaut miles runAvg speedWind from/ knotsBaromVisibWave heightAir tempDewpointWater temp
2015-Aug-29 23:33N 40°44' W 074°01'2 1.6
2015-Aug-29 22:33N 40°42' W 074°00'1 1.5
2015-Aug-29 21:34N 40°42' W 074°02'1 1.5
2015-Aug-29 20:34N 40°42' W 074°00'0 0.1
2015-Aug-29 19:33N 40°42' W 074°00'1 1.3
2015-Aug-29 18:34N 40°41' W 074°02'1 1.4
2015-Aug-29 17:34N 40°42' W 074°00'0 0.0
2015-Aug-29 16:34N 40°42' W 074°00'2 1.7
2015-Aug-29 15:34N 40°41' W 074°02'2 1.7
2015-Aug-29 14:34N 40°42' W 074°00'0 0.0
2015-Aug-29 13:34N 40°42' W 074°00'2 1.6
2015-Aug-29 12:34N 40°44' W 074°01'0 0.0
2015-Aug-29 11:33N 40°44' W 074°01'0 0.0
2015-Aug-29 10:33N 40°44' W 074°01'0 0.0
2015-Aug-29 09:33N 40°44' W 074°01'0 0.0
2015-Aug-29 08:33N 40°44' W 074°01'0 0.0
2015-Aug-29 07:33N 40°44' W 074°01'0 0.0
2015-Aug-29 06:33N 40°44' W 074°01'0 0.0
2015-Aug-29 05:34N 40°44' W 074°01'0 0.0
2015-Aug-29 04:33N 40°44' W 074°01'0 0.0
2015-Aug-29 03:33N 40°44' W 074°01'0 0.0
2015-Aug-29 02:33N 40°44' W 074°01'0 0.0
2015-Aug-29 01:33N 40°44' W 074°01'0 0.0
2015-Aug-29 00:33N 40°44' W 074°01'0 0.0
2015-Aug-28 23:33N 40°44' W 074°01'0 0.0
2015-Aug-28 22:33N 40°44' W 074°01'2 2.3
2015-Aug-28 21:33N 40°42' W 074°02'1 1.3
2015-Aug-28 20:33N 40°42' W 074°00'0 0.0
2015-Aug-28 19:33N 40°42' W 074°00'2 1.9
2015-Aug-28 18:33N 40°41' W 074°02'2 1.9
2015-Aug-28 17:33N 40°42' W 074°00'0 0.0
2015-Aug-28 16:33N 40°42' W 074°00'2 1.9
2015-Aug-28 15:33N 40°41' W 074°02'2 1.9
2015-Aug-28 14:33N 40°42' W 074°00'0 0.0
2015-Aug-28 13:33N 40°42' W 074°00'2 1.6
2015-Aug-28 12:33N 40°44' W 074°01'0 0.0
2015-Aug-28 11:33N 40°44' W 074°01'0 0.0
2015-Aug-27 20:04N 40°44' W 074°01'2 3.2
2015-Aug-27 19:33N 40°42' W 074°00'0 0.0
2015-Aug-27 18:33N 40°42' W 074°00'2 1.6
2015-Aug-27 17:33N 40°41' W 074°02'2 1.6
2015-Aug-27 16:33N 40°42' W 074°00'0 0.0
2015-Aug-27 15:33N 40°42' W 074°00'2 1.5
2015-Aug-27 14:34N 40°41' W 074°02'2 1.5
2015-Aug-27 13:33N 40°42' W 074°00'2 0.1
2015-Aug-26 22:33N 40°44' W 074°01'2 1.6
2015-Aug-26 21:33N 40°42' W 074°00'0 0.0
2015-Aug-26 20:33N 40°42' W 074°00'0 0.0
2015-Aug-26 19:33N 40°42' W 074°00'0 0.0
2015-Aug-26 18:33N 40°42' W 074°00'2 1.8
2015-Aug-26 17:33N 40°41' W 074°02'2 1.8
2015-Aug-26 16:33N 40°42' W 074°00'0 0.0
2015-Aug-26 15:33N 40°42' W 074°00'2 1.6
2015-Aug-26 14:33N 40°41' W 074°02'1 0.9
2015-Aug-26 13:33N 40°42' W 074°01'1 0.1
2015-Aug-26 02:34N 40°42' W 074°02'7 3.2
2015-Aug-26 00:32N 40°48' W 073°59'4 4.3
2015-Aug-25 23:33N 40°44' W 074°01'0 0.0
2015-Aug-25 22:33N 40°44' W 074°01'0 0.0
2015-Aug-25 21:33N 40°44' W 074°01'0 0.0
2015-Aug-25 20:33N 40°44' W 074°01'2 1.6
2015-Aug-25 19:33N 40°42' W 074°00'0 0.0
2015-Aug-25 18:34N 40°42' W 074°00'2 1.8
2015-Aug-25 17:33N 40°41' W 074°02'2 2.1
2015-Aug-25 16:34N 40°42' W 073°60'0 0.2
2015-Aug-25 15:34N 40°42' W 074°00'1 1.5
2015-Aug-25 14:33N 40°41' W 074°02'1 1.5
2015-Aug-25 13:34N 40°42' W 074°00'2 0.1
2015-Aug-24 20:33N 40°44' W 074°01'2 1.6
2015-Aug-24 19:34N 40°42' W 074°00'0 0.0
2015-Aug-24 18:34N 40°42' W 074°00'1 1.3
2015-Aug-24 17:34N 40°42' W 074°02'1 1.3
2015-Aug-24 16:33N 40°42' W 074°00'0 0.0
2015-Aug-24 15:34N 40°42' W 074°00'1 1.3
2015-Aug-24 14:34N 40°42' W 074°02'2 2.2
2015-Aug-24 13:34N 40°44' W 074°01'0 0.0
2015-Aug-24 00:17N 40°44' W 074°01'0 0.0
2015-Aug-23 23:33N 40°44' W 074°01'0 0.0
2015-Aug-23 22:33N 40°44' W 074°01'3 2.5
2015-Aug-23 21:33N 40°41' W 074°02'2 1.5
2015-Aug-23 20:33N 40°42' W 074°00'0 0.0
2015-Aug-23 19:33N 40°42' W 074°00'2 1.7
2015-Aug-23 18:33N 40°41' W 074°02'2 1.7
2015-Aug-23 17:33N 40°42' W 074°00'0 0.0
2015-Aug-23 16:33N 40°42' W 074°00'1 1.3
2015-Aug-23 15:33N 40°42' W 074°02'1 1.3
2015-Aug-23 14:33N 40°42' W 074°00'0 0.0
2015-Aug-23 13:33N 40°42' W 074°00'2 0.1
2015-Aug-22 23:24N 40°44' W 074°01'0 0.2
2015-Aug-22 22:33N 40°44' W 074°01'2 2.4
2015-Aug-22 21:33N 40°42' W 074°01'1 1.2
2015-Aug-22 20:34N 40°42' W 074°00'0 0.0
2015-Aug-22 19:34N 40°42' W 074°00'2 1.5
2015-Aug-22 18:33N 40°42' W 074°02'2 1.6
2015-Aug-22 17:33N 40°42' W 074°00'0 0.3
2015-Aug-22 16:33N 40°42' W 074°00'1 1.0
2015-Aug-22 15:33N 40°42' W 074°02'1 1.3
2015-Aug-22 14:33N 40°42' W 074°00'0 0.0
2015-Aug-22 13:33N 40°42' W 074°00'2 1.6
2015-Aug-22 12:33N 40°44' W 074°01'0 0.0
2015-Aug-21 23:03N 40°44' W 074°01'0 0.3
2015-Aug-21 22:33N 40°44' W 074°01'2 2.4
2015-Aug-21 21:33N 40°42' W 074°02'1 1.4
2015-Aug-21 20:33N 40°42' W 074°00'0 0.0
2015-Aug-21 19:33N 40°42' W 074°00'1 1.2
2015-Aug-21 18:33N 40°42' W 074°02'1 1.2
2015-Aug-21 17:33N 40°42' W 074°00'0 0.0
2015-Aug-21 16:33N 40°42' W 074°00'1 1.4
2015-Aug-21 15:33N 40°42' W 074°02'1 1.4
2015-Aug-21 14:33N 40°42' W 074°00'0 0.0
2015-Aug-21 13:33N 40°42' W 074°00'2 0.1
2015-Aug-20 20:33N 40°44' W 074°01'2 1.6
2015-Aug-20 19:33N 40°42' W 074°00'0 0.0
2015-Aug-20 18:34N 40°42' W 074°00'1 1.1
2015-Aug-20 17:33N 40°42' W 074°01'1 1.1
2015-Aug-20 16:33N 40°42' W 074°00'0 0.0
2015-Aug-20 15:34N 40°42' W 074°00'2 1.6
2015-Aug-20 14:33N 40°41' W 074°02'2 1.7
2015-Aug-20 13:33N 40°43' W 074°01'1 0.8
2015-Aug-20 12:34N 40°44' W 074°01'0 0.0
2015-Aug-20 11:34N 40°44' W 074°01'0 0.0
2015-Aug-20 10:33N 40°44' W 074°01'0 0.0
2015-Aug-20 09:34N 40°44' W 074°01'0 0.0
2015-Aug-20 08:34N 40°44' W 074°01'0 0.0
2015-Aug-20 07:34N 40°44' W 074°01'0 0.0
2015-Aug-20 06:34N 40°44' W 074°01'0 0.0
2015-Aug-20 05:34N 40°44' W 074°01'0 0.0
2015-Aug-20 04:34N 40°44' W 074°01'0 0.0
2015-Aug-20 03:34N 40°44' W 074°01'0 0.0
2015-Aug-20 02:34N 40°44' W 074°01'0 0.0
2015-Aug-20 01:34N 40°44' W 074°01'0 0.0
2015-Aug-20 00:34N 40°44' W 074°01'  

Dump ship's entire track history